Time;durP1;ratioP1;P1;durP2;ratioP2;P2;SDS_P1;SDS_P2;PMS_P1;PMS_P2;Temp;Humidity;BMP_temperature;BMP_pressure;BME280_temperature;BME280_humidity;BME280_pressure;Samples;Min_cycle;Max_cycle;Signal;HPM_P1;HPM_P2
2022/08/19 00:01:39;;;;;;;29.38;26.23;;;19.20;90.40;;;;;;5075708;28;20108;-76
2022/08/19 00:04:10;;;;;;;24.67;20.92;;;19.10;90.50;;;;;;5074513;28;20036;-76
2022/08/19 00:06:39;;;;;;;32.50;28.98;;;19.10;91.50;;;;;;5075928;28;20029;-76
2022/08/19 00:09:07;;;;;;;32.80;29.20;;;19.10;89.20;;;;;;5075715;28;20070;-76
2022/08/19 00:11:35;;;;;;;31.20;27.65;;;19.10;89.50;;;;;;5075531;28;20495;-76
2022/08/19 00:14:01;;;;;;;27.73;24.80;;;19.00;89.40;;;;;;5075349;28;20024;-76
2022/08/19 00:16:27;;;;;;;31.15;26.58;;;19.00;89.30;;;;;;5075149;28;20402;-76
2022/08/19 00:18:56;;;;;;;24.50;21.90;;;18.90;89.50;;;;;;5075207;28;20103;-76
2022/08/19 00:21:23;;;;;;;28.63;23.45;;;18.90;89.70;;;;;;5075293;28;20020;-75
2022/08/19 00:23:48;;;;;;;26.70;23.90;;;18.90;90.20;;;;;;5075110;28;20032;-76
2022/08/19 00:26:14;;;;;;;27.20;24.27;;;19.00;89.80;;;;;;5075148;28;20337;-75
2022/08/19 00:28:40;;;;;;;25.13;22.52;;;19.00;90.00;;;;;;5073794;28;20075;-74
2022/08/19 00:31:08;;;;;;;31.00;26.25;;;19.00;90.10;;;;;;5074942;28;20035;-74
2022/08/19 00:33:34;;;;;;;31.42;27.85;;;19.00;90.40;;;;;;5073871;28;20028;-75
2022/08/19 00:36:04;;;;;;;26.58;23.10;;;19.10;90.40;;;;;;5075072;28;20465;-75
2022/08/19 00:38:33;;;;;;;34.72;28.60;;;19.10;90.40;;;;;;5075123;28;20052;-74
2022/08/19 00:40:58;;;;;;;31.02;27.10;;;19.10;90.00;;;;;;5075046;28;20031;-73
2022/08/19 00:43:25;;;;;;;34.42;28.10;;;19.00;89.80;;;;;;5074433;28;20396;-75
2022/08/19 00:45:51;;;;;;;30.95;27.20;;;19.00;89.90;;;;;;5074919;28;20388;-76
2022/08/19 00:48:19;;;;;;;35.15;27.83;;;18.90;90.10;;;;;;5073486;28;20017;-75
2022/08/19 00:50:45;;;;;;;34.03;27.08;;;18.90;90.10;;;;;;5074592;28;20088;-75
2022/08/19 00:53:14;;;;;;;25.38;22.17;;;18.90;90.40;;;;;;5074743;28;20036;-75
2022/08/19 00:55:44;;;;;;;29.95;24.05;;;18.80;90.20;;;;;;5074614;28;20364;-76
2022/08/19 00:58:15;;;;;;;28.88;24.00;;;18.90;90.30;;;;;;5074567;28;20021;-76
2022/08/19 01:00:41;;;;;;;34.55;29.85;;;18.90;90.50;;;;;;5074633;28;20032;-76
2022/08/19 01:03:13;;;;;;;33.13;27.05;;;18.90;90.90;;;;;;5074622;28;20036;-76
2022/08/19 01:05:42;;;;;;;34.47;29.17;;;19.00;91.20;;;;;;5074220;28;20106;-76
2022/08/19 01:08:08;;;;;;;38.35;32.78;;;19.00;91.30;;;;;;5074398;28;20416;-75
2022/08/19 01:10:40;;;;;;;35.58;31.73;;;18.80;91.90;;;;;;5074230;28;20031;-75
2022/08/19 01:13:06;;;;;;;30.63;26.88;;;18.80;92.40;;;;;;5074589;28;20393;-74
2022/08/19 01:15:42;;;;;;;32.58;28.38;;;18.80;92.50;;;;;;5074403;28;20020;-76
2022/08/19 01:18:11;;;;;;;26.52;23.60;;;18.70;92.50;;;;;;5074484;28;20024;-74
2022/08/19 01:20:38;;;;;;;32.33;27.73;;;18.80;92.30;;;;;;5074422;28;20023;-75
2022/08/19 01:23:04;;;;;;;34.75;29.73;;;18.80;92.20;;;;;;5074301;28;20055;-75
2022/08/19 01:25:35;;;;;;;29.38;24.35;;;18.80;92.20;;;;;;5074336;28;20040;-75
2022/08/19 01:28:02;;;;;;;29.40;26.05;;;18.80;92.00;;;;;;5074316;28;20024;-75
2022/08/19 01:30:31;;;;;;;30.48;25.65;;;18.80;91.80;;;;;;5074194;28;20111;-75
2022/08/19 01:33:00;;;;;;;34.67;28.58;;;18.90;91.80;;;;;;5074248;28;20028;-75
2022/08/19 01:35:28;;;;;;;35.78;30.05;;;18.80;91.60;;;;;;5072932;28;20042;-75
2022/08/19 01:37:58;;;;;;;33.55;28.23;;;18.80;91.60;;;;;;5074063;28;20361;-75
2022/08/19 01:40:28;;;;;;;37.35;30.02;;;18.70;91.20;;;;;;5072898;28;20427;-75
2022/08/19 01:42:54;;;;;;;35.60;29.42;;;18.70;91.30;;;;;;5074013;28;20016;-75
2022/08/19 01:45:24;;;;;;;38.45;30.55;;;18.60;91.50;;;;;;5073657;28;20507;-75
2022/08/19 01:47:50;;;;;;;36.08;30.85;;;18.60;92.00;;;;;;5072658;28;20017;-75
2022/08/19 01:50:15;;;;;;;38.72;31.52;;;18.50;92.30;;;;;;5073618;28;20267;-75
2022/08/19 01:52:43;;;;;;;36.65;29.75;;;18.50;92.10;;;;;;5073869;28;20602;-75
2022/08/19 01:55:14;;;;;;;37.22;27.73;;;18.50;92.20;;;;;;5073213;28;20463;-76
2022/08/19 01:57:42;;;;;;;37.78;29.85;;;18.50;91.90;;;;;;5073792;28;20135;-75
2022/08/19 02:00:14;;;;;;;33.75;27.15;;;18.50;91.70;;;;;;5073545;28;20048;-75
2022/08/19 02:02:40;;;;;;;32.25;26.05;;;18.50;91.60;;;;;;5073482;28;20099;-75
2022/08/19 02:05:07;;;;;;;31.13;25.83;;;18.50;91.20;;;;;;5073570;28;20124;-75
2022/08/19 02:07:34;;;;;;;28.98;22.83;;;18.50;91.00;;;;;;5073260;28;20503;-73
2022/08/19 02:10:13;;;;;;;37.85;28.55;;;18.60;91.00;;;;;;5073305;28;20035;-74
2022/08/19 02:12:38;;;;;;;33.42;26.58;;;18.60;90.90;;;;;;5073381;28;20021;-74
2022/08/19 02:15:05;;;;;;;27.77;23.23;;;18.50;91.10;;;;;;5073292;28;20032;-74
2022/08/19 02:17:31;;;;;;;28.13;23.58;;;18.50;91.20;;;;;;5073104;28;20023;-74
2022/08/19 02:19:57;;;;;;;30.05;23.95;;;18.60;91.10;;;;;;5073086;28;20020;-74
2022/08/19 02:22:24;;;;;;;28.05;21.63;;;18.70;91.10;;;;;;5073074;28;20021;-74
2022/08/19 02:24:49;;;;;;;34.78;25.13;;;18.70;90.90;;;;;;5072936;28;20120;-75
2022/08/19 02:27:15;;;;;;;32.53;23.80;;;18.70;90.60;;;;;;5073167;28;20075;-75
2022/08/19 02:29:41;;;;;;;32.30;25.05;;;18.70;90.70;;;;;;5071777;28;20025;-75
2022/08/19 02:32:07;;;;;;;32.78;25.63;;;18.70;90.50;;;;;;5072979;28;20028;-75
2022/08/19 02:34:33;;;;;;;34.92;28.65;;;18.70;90.50;;;;;;5071841;28;20354;-77
2022/08/19 02:36:59;;;;;;;29.73;25.52;;;18.70;90.00;;;;;;5073073;28;20422;-73
2022/08/19 02:39:24;;;;;;;36.47;27.98;;;18.60;90.10;;;;;;5072759;28;20031;-73
2022/08/19 02:41:51;;;;;;;38.47;28.45;;;18.60;90.00;;;;;;5073047;28;20028;-74
2022/08/19 02:44:17;;;;;;;34.03;27.52;;;18.60;90.10;;;;;;5072541;28;20051;-73
2022/08/19 02:46:44;;;;;;;35.75;27.05;;;18.50;90.20;;;;;;5072818;28;20066;-73
2022/08/19 02:49:10;;;;;;;38.92;29.48;;;18.50;90.10;;;;;;5072797;28;20087;-74
2022/08/19 02:51:38;;;;;;;36.88;27.45;;;18.40;90.20;;;;;;5072811;28;20020;-73
2022/08/19 02:54:05;;;;;;;30.30;24.55;;;18.40;90.30;;;;;;5072800;28;20032;-73
2022/08/19 02:56:31;;;;;;;31.13;24.75;;;18.40;90.50;;;;;;5072860;28;20028;-73
2022/08/19 02:58:58;;;;;;;43.65;31.42;;;18.40;90.60;;;;;;5072623;28;20155;-74
2022/08/19 03:01:30;;;;;;;35.92;26.05;;;18.40;90.50;;;;;;5072833;28;20021;-73
2022/08/19 03:03:58;;;;;;;36.13;27.17;;;18.40;90.20;;;;;;5072442;28;20024;-74
2022/08/19 03:06:23;;;;;;;39.33;28.42;;;18.40;90.10;;;;;;5074474;28;20111;-73
2022/08/19 03:08:51;;;;;;;34.30;24.83;;;18.40;89.70;;;;;;5076528;28;20147;-73
2022/08/19 03:11:29;;;;;;;29.42;22.55;;;18.40;90.00;;;;;;5077011;28;20130;-74
2022/08/19 03:13:56;;;;;;;36.15;26.73;;;18.40;90.00;;;;;;5076613;28;20027;-73
2022/08/19 03:16:23;;;;;;;31.33;24.13;;;18.40;89.80;;;;;;5076454;28;20028;-73
2022/08/19 03:18:49;;;;;;;31.30;24.63;;;18.40;89.70;;;;;;5076501;28;20024;-74
2022/08/19 03:21:17;;;;;;;33.17;24.35;;;18.50;89.70;;;;;;5076514;28;20031;-74
2022/08/19 03:23:43;;;;;;;31.77;23.70;;;18.50;89.60;;;;;;5075005;28;20025;-74
2022/08/19 03:26:09;;;;;;;38.17;27.23;;;18.50;89.50;;;;;;5076623;28;20411;-74
2022/08/19 03:28:35;;;;;;;38.35;28.83;;;18.50;89.40;;;;;;5076126;28;20032;-74
2022/08/19 03:31:11;;;;;;;42.47;29.90;;;18.50;89.60;;;;;;5076282;28;20038;-74
2022/08/19 03:33:37;;;;;;;34.10;24.88;;;18.40;89.90;;;;;;5076038;28;20031;-74
2022/08/19 03:36:10;;;;;;;33.97;25.15;;;18.40;89.90;;;;;;5075823;28;20017;-73
2022/08/19 03:38:39;;;;;;;38.30;27.42;;;18.40;89.70;;;;;;5075788;28;20410;-74
2022/08/19 03:41:08;;;;;;;39.03;28.42;;;18.30;90.30;;;;;;5074499;28;20024;-74
2022/08/19 03:43:39;;;;;;;37.58;28.67;;;18.30;89.60;;;;;;5075624;28;20480;-75
2022/08/19 03:46:08;;;;;;;31.05;24.02;;;18.30;89.90;;;;;;5075728;28;20032;-74
2022/08/19 03:48:36;;;;;;;36.00;25.27;;;18.30;90.10;;;;;;5075419;28;20480;-74
2022/08/19 03:51:02;;;;;;;32.38;23.08;;;18.40;90.10;;;;;;5075631;28;20119;-75
2022/08/19 03:53:30;;;;;;;32.85;24.58;;;18.40;90.10;;;;;;5075664;28;20025;-74
2022/08/19 03:55:59;;;;;;;37.78;27.05;;;18.40;89.80;;;;;;5075743;28;20024;-74
2022/08/19 03:58:27;;;;;;;37.22;28.45;;;18.40;89.90;;;;;;5075389;28;20021;-74
2022/08/19 04:00:53;;;;;;;43.85;30.80;;;18.50;89.80;;;;;;5075648;28;20013;-75
2022/08/19 04:03:18;;;;;;;32.90;24.73;;;18.50;90.30;;;;;;5075488;28;20556;-74
2022/08/19 04:05:45;;;;;;;46.75;31.20;;;18.50;90.20;;;;;;5074036;28;20419;-75
2022/08/19 04:08:11;;;;;;;38.08;28.98;;;18.50;90.00;;;;;;5075484;28;20083;-74
2022/08/19 04:10:37;;;;;;;32.88;25.10;;;18.40;90.00;;;;;;5075394;28;20029;-75
2022/08/19 04:13:05;;;;;;;34.35;25.85;;;18.50;89.80;;;;;;5075279;28;20035;-74
2022/08/19 04:15:35;;;;;;;34.17;26.42;;;18.50;89.70;;;;;;5075355;28;20074;-74
2022/08/19 04:18:01;;;;;;;37.22;27.08;;;18.50;89.70;;;;;;5074530;28;20070;-74
2022/08/19 04:20:26;;;;;;;32.38;25.00;;;18.50;89.50;;;;;;5075264;28;20025;-74
2022/08/19 04:22:52;;;;;;;37.25;28.20;;;18.50;89.50;;;;;;5074981;28;20020;-75
2022/08/19 04:25:18;;;;;;;38.03;27.63;;;18.50;89.30;;;;;;5074963;28;20033;-74
2022/08/19 04:27:46;;;;;;;39.53;29.33;;;18.50;89.10;;;;;;5075029;28;20021;-74
2022/08/19 04:30:12;;;;;;;41.38;29.80;;;18.40;88.80;;;;;;5075167;28;20028;-74
2022/08/19 04:32:38;;;;;;;38.13;28.70;;;18.40;88.40;;;;;;5074933;28;20505;-74
2022/08/19 04:35:04;;;;;;;41.50;30.10;;;18.40;88.80;;;;;;5074859;28;20102;-74
2022/08/19 04:37:32;;;;;;;41.28;28.80;;;18.30;88.70;;;;;;5074775;28;20135;-74
2022/08/19 04:42:42;;;;;;;34.47;26.40;;;18.40;88.90;;;;;;5075107;28;20266;-74
2022/08/19 04:45:12;;;;;;;38.25;26.95;;;18.40;89.00;;;;;;5074335;28;20049;-74
2022/08/19 04:47:40;;;;;;;34.08;25.30;;;18.30;89.10;;;;;;5074576;28;20023;-74
2022/08/19 04:50:07;;;;;;;35.00;26.35;;;18.40;89.20;;;;;;5074814;28;20039;-74
2022/08/19 04:52:33;;;;;;;33.35;25.48;;;18.30;89.10;;;;;;5074609;28;20019;-74
2022/08/19 04:54:59;;;;;;;34.17;24.80;;;18.30;89.80;;;;;;5074624;28;20021;-74
2022/08/19 04:57:25;;;;;;;30.85;22.60;;;18.40;89.10;;;;;;5074532;28;20017;-74
2022/08/19 04:59:55;;;;;;;31.05;24.17;;;18.40;89.10;;;;;;5074612;28;20029;-74
2022/08/19 05:02:24;;;;;;;33.72;24.73;;;18.40;89.10;;;;;;5074398;28;20021;-74
2022/08/19 05:04:58;;;;;;;30.92;23.23;;;18.40;89.00;;;;;;5074301;28;20033;-74
2022/08/19 05:07:25;;;;;;;37.10;28.38;;;18.40;89.00;;;;;;5074270;28;20066;-74
2022/08/19 05:09:50;;;;;;;40.92;29.13;;;18.40;88.90;;;;;;5074200;28;20054;-74
2022/08/19 05:12:16;;;;;;;33.58;25.02;;;18.40;88.70;;;;;;5074046;28;20028;-74
2022/08/19 05:14:43;;;;;;;43.08;29.27;;;18.40;88.90;;;;;;5073768;28;20024;-74
2022/08/19 05:17:08;;;;;;;34.40;26.00;;;18.40;88.70;;;;;;5074154;28;20036;-74
2022/08/19 05:22:35;;;;;;;31.45;24.92;;;18.40;88.70;;;;;;5074351;28;20035;-74
2022/08/19 05:25:11;;;;;;;32.45;23.65;;;18.40;88.60;;;;;;5073924;28;20461;-73
2022/08/19 05:27:37;;;;;;;36.42;26.55;;;18.50;88.80;;;;;;5074043;28;20020;-74
2022/08/19 05:30:04;;;;;;;39.92;26.88;;;18.50;88.70;;;;;;5073355;28;20032;-74
2022/08/19 05:32:29;;;;;;;28.25;23.42;;;18.50;88.70;;;;;;5073811;28;20107;-73
2022/08/19 05:34:55;;;;;;;32.38;24.58;;;18.60;88.50;;;;;;5073690;28;20095;-73
2022/08/19 05:37:21;;;;;;;33.00;23.60;;;18.60;88.50;;;;;;5073833;28;20024;-74
2022/08/19 05:39:48;;;;;;;28.75;23.02;;;18.60;88.60;;;;;;5073738;28;20023;-73
2022/08/19 05:42:14;;;;;;;30.92;23.55;;;18.60;88.70;;;;;;5073365;28;20028;-73
2022/08/19 05:44:46;;;;;;;39.28;27.60;;;18.70;88.90;;;;;;5073351;28;20053;-73
2022/08/19 05:47:14;;;;;;;33.05;23.70;;;18.70;89.00;;;;;;5073477;28;20070;-73
2022/08/19 05:49:40;;;;;;;30.25;23.10;;;18.70;89.00;;;;;;5072204;28;20362;-73
2022/08/19 05:52:10;;;;;;;30.45;22.63;;;18.70;88.90;;;;;;5073439;28;20056;-73
2022/08/19 05:54:41;;;;;;;30.73;24.35;;;18.70;88.80;;;;;;5073449;28;20032;-74
2022/08/19 05:57:07;;;;;;;31.55;22.90;;;18.70;88.90;;;;;;5073423;28;20024;-73
2022/08/19 05:59:34;;;;;;;35.67;26.38;;;18.70;89.00;;;;;;5071833;28;20024;-74
2022/08/19 06:02:00;;;;;;;42.50;29.10;;;18.70;89.00;;;;;;5073114;28;20019;-74
2022/08/19 06:04:26;;;;;;;45.58;33.25;;;18.70;88.70;;;;;;5071450;28;20119;-74
2022/08/19 06:06:53;;;;;;;32.40;25.40;;;18.70;88.40;;;;;;5072884;28;20112;-75
2022/08/19 06:09:20;;;;;;;39.95;26.67;;;18.60;88.30;;;;;;5072935;28;20107;-74
2022/08/19 06:11:53;;;;;;;46.00;33.75;;;18.70;88.30;;;;;;5072830;28;20028;-74
2022/08/19 06:14:26;;;;;;;50.83;33.17;;;18.70;87.60;;;;;;5072788;28;20025;-74
2022/08/19 06:16:52;;;;;;;42.95;28.70;;;18.70;87.90;;;;;;5072618;28;20069;-74
2022/08/19 06:19:20;;;;;;;41.53;29.85;;;18.70;88.30;;;;;;5073069;28;20032;-74
2022/08/19 06:21:47;;;;;;;43.90;32.92;;;18.70;87.80;;;;;;5072796;28;20064;-74
2022/08/19 06:24:17;;;;;;;44.38;33.10;;;18.70;87.80;;;;;;5071389;28;20028;-74
2022/08/19 06:26:46;;;;;;;47.72;32.67;;;18.70;88.30;;;;;;5072609;28;20029;-74
2022/08/19 06:29:13;;;;;;;31.83;25.42;;;18.70;88.40;;;;;;5072397;28;20488;-74
2022/08/19 06:31:43;;;;;;;42.20;31.58;;;18.70;88.20;;;;;;5072602;28;20020;-78
2022/08/19 06:34:09;;;;;;;47.72;33.53;;;18.80;88.00;;;;;;5072616;28;20046;-78
2022/08/19 06:36:41;;;;;;;45.90;33.40;;;18.80;88.00;;;;;;5072624;28;20400;-77
2022/08/19 06:39:23;;;;;;;41.05;29.27;;;18.80;88.20;;;;;;5071237;28;20110;-77
2022/08/19 06:41:52;;;;;;;33.00;26.42;;;18.90;88.20;;;;;;5072615;28;20025;-77
2022/08/19 06:44:19;;;;;;;33.13;25.33;;;18.90;88.00;;;;;;5072385;28;20058;-77
2022/08/19 06:46:45;;;;;;;45.13;33.28;;;19.00;88.00;;;;;;5072679;28;20028;-76
2022/08/19 06:49:13;;;;;;;37.72;26.95;;;19.00;87.60;;;;;;5072442;28;20021;-76
2022/08/19 06:51:43;;;;;;;38.53;30.13;;;19.00;87.40;;;;;;5072464;28;20457;-77
2022/08/19 06:54:10;;;;;;;34.67;27.42;;;18.90;87.40;;;;;;5071055;28;20029;-78
2022/08/19 06:56:36;;;;;;;35.92;26.80;;;18.90;87.60;;;;;;5072161;28;20033;-77
2022/08/19 06:59:08;;;;;;;37.33;29.08;;;19.00;87.60;;;;;;5072455;28;20377;-81
2022/08/19 07:01:37;;;;;;;35.15;26.73;;;19.00;87.30;;;;;;5072253;28;20021;-77
2022/08/19 07:04:03;;;;;;;41.78;30.90;;;19.00;87.30;;;;;;5072436;28;20028;-79
2022/08/19 07:06:30;;;;;;;46.58;32.10;;;19.00;87.50;;;;;;5072667;28;20021;-79
2022/08/19 07:08:57;;;;;;;37.70;25.58;;;19.10;87.50;;;;;;5074518;28;20112;-78
2022/08/19 07:11:23;;;;;;;35.33;23.98;;;19.10;87.40;;;;;;5072369;28;20516;-78
2022/08/19 07:13:49;;;;;;;36.70;25.58;;;19.30;86.70;;;;;;5072600;28;20059;-78
2022/08/19 07:16:19;;;;;;;35.90;27.35;;;19.50;85.70;;;;;;5072054;28;20465;-86
2022/08/19 07:18:48;;;;;;;41.78;30.88;;;19.60;85.30;;;;;;5073153;28;20020;-83
2022/08/19 07:21:20;;;;;;;37.75;27.08;;;19.70;84.70;;;;;;5072690;28;20025;-83
2022/08/19 07:23:47;;;;;;;36.17;25.88;;;19.80;84.50;;;;;;5073097;28;20055;-82
2022/08/19 07:26:23;;;;;;;32.35;25.80;;;19.90;83.90;;;;;;5084781;28;20037;-82
2022/08/19 07:28:50;;;;;;;29.55;24.25;;;20.00;83.60;;;;;;5095906;28;20008;-82
2022/08/19 07:31:20;;;;;;;33.20;26.77;;;20.10;83.10;;;;;;5089562;28;20056;-84
2022/08/19 07:33:47;;;;;;;31.27;26.48;;;20.10;82.70;;;;;;5073486;28;20033;-85
2022/08/19 07:36:16;;;;;;;30.83;25.08;;;20.10;82.50;;;;;;5071952;28;20028;-84
2022/08/19 07:38:44;;;;;;;30.70;26.42;;;20.20;82.40;;;;;;5071918;28;20436;-86
2022/08/19 07:41:13;;;;;;;29.63;23.73;;;20.20;82.20;;;;;;5071333;28;20029;-86
2022/08/19 07:43:38;;;;;;;33.15;25.83;;;20.20;82.20;;;;;;5072235;28;20024;-77
2022/08/19 07:46:04;;;;;;;35.30;28.15;;;20.20;81.80;;;;;;5071962;28;20037;-79
2022/08/19 07:48:30;;;;;;;39.92;29.90;;;20.10;81.90;;;;;;5071836;28;20492;-76
2022/08/19 07:50:59;;;;;;;32.88;25.80;;;20.10;81.50;;;;;;5071856;28;20025;-82
2022/08/19 07:53:25;;;;;;;35.75;25.83;;;20.10;81.80;;;;;;5074974;28;20021;-83
2022/08/19 07:55:51;;;;;;;35.40;27.95;;;20.10;81.40;;;;;;5075658;28;20054;-84
2022/08/19 07:58:20;;;;;;;36.45;27.80;;;20.20;81.10;;;;;;5074511;28;20028;-79
2022/08/19 08:00:48;;;;;;;39.60;32.08;;;20.10;80.90;;;;;;5075680;28;20099;-81
2022/08/19 08:03:16;;;;;;;47.00;35.00;;;20.10;80.40;;;;;;5074985;28;20028;-83
2022/08/19 08:11:12;;;;;;;36.40;29.20;;;20.00;81.10;;;;;;5075171;28;20090;-85
2022/08/19 08:13:38;;;;;;;39.22;29.48;;;20.00;81.30;;;;;;5074003;28;20078;-84
2022/08/19 08:16:04;;;;;;;34.53;28.15;;;20.00;81.40;;;;;;5074262;28;20028;-79
2022/08/19 08:18:30;;;;;;;42.25;32.30;;;19.90;81.50;;;;;;5057206;28;20028;-84
2022/08/19 08:20:57;;;;;;;42.53;33.92;;;20.00;81.60;;;;;;5073849;28;20062;-85
2022/08/19 08:23:24;;;;;;;42.35;31.85;;;19.90;82.20;;;;;;5073805;28;20024;-85
2022/08/19 08:25:51;;;;;;;38.60;29.92;;;19.90;82.10;;;;;;5073918;28;20059;-79
2022/08/19 08:28:18;;;;;;;40.78;29.92;;;19.90;82.00;;;;;;5073973;28;20025;-79
2022/08/19 08:30:47;;;;;;;38.42;29.65;;;19.90;81.80;;;;;;5075215;28;20051;-84
2022/08/19 08:33:21;;;;;;;41.10;32.33;;;19.80;81.90;;;;;;5075136;28;20108;-84
2022/08/19 08:35:47;;;;;;;39.42;31.10;;;19.80;81.90;;;;;;5074121;28;20032;-83
2022/08/19 08:38:14;;;;;;;38.00;30.55;;;19.80;82.30;;;;;;5073590;28;20116;-83
2022/08/19 08:40:49;;;;;;;46.67;33.25;;;19.70;82.30;;;;;;5074280;28;20123;-84
2022/08/19 08:43:32;;;;;;;39.50;30.67;;;19.70;82.80;;;;;;5073779;28;20115;-85
2022/08/19 08:46:20;;;;;;;45.22;31.55;;;19.60;83.00;;;;;;5073593;28;20044;-77
2022/08/19 08:48:55;;;;;;;46.35;34.20;;;19.60;83.30;;;;;;5073324;28;20025;-87
2022/08/19 08:51:33;;;;;;;50.80;35.63;;;19.50;83.10;;;;;;5073400;28;20024;-78
2022/08/19 08:53:59;;;;;;;49.38;35.85;;;19.50;83.30;;;;;;5072997;28;20029;-78
2022/08/19 08:56:25;;;;;;;49.00;36.85;;;19.30;83.60;;;;;;5073348;28;20127;-78
2022/08/19 08:59:09;;;;;;;50.90;36.55;;;19.20;83.80;;;;;;5056025;28;20548;-77
2022/08/19 09:01:42;;;;;;;49.30;35.28;;;19.10;84.40;;;;;;5056511;28;20033;-77
2022/08/19 09:04:12;;;;;;;47.90;36.70;;;19.10;85.00;;;;;;5074333;28;20021;-77
2022/08/19 09:06:55;;;;;;;59.30;40.33;;;19.00;84.70;;;;;;5073331;28;20044;-77
2022/08/19 09:09:34;;;;;;;56.13;39.70;;;18.90;85.70;;;;;;5072883;28;20473;-77
2022/08/19 09:12:04;;;;;;;50.33;38.17;;;18.80;86.30;;;;;;5073313;28;20021;-76
2022/08/19 09:14:53;;;;;;;55.45;39.53;;;18.70;86.50;;;;;;5074247;28;20392;-77
2022/08/19 09:17:30;;;;;;;49.63;36.30;;;18.60;86.70;;;;;;5072997;28;20028;-76
2022/08/19 09:20:17;;;;;;;49.58;38.47;;;18.60;86.70;;;;;;5073004;28;20086;-76
2022/08/19 09:22:44;;;;;;;55.58;38.15;;;18.60;87.00;;;;;;5074416;28;20025;-76
2022/08/19 09:25:15;;;;;;;45.78;34.90;;;18.60;86.80;;;;;;5072816;28;20079;-76
2022/08/19 09:27:44;;;;;;;51.22;37.45;;;18.60;87.10;;;;;;5072422;28;20020;-76
2022/08/19 09:30:27;;;;;;;49.67;37.40;;;18.60;87.20;;;;;;5072868;28;20094;-76
2022/08/19 09:32:54;;;;;;;46.80;35.08;;;18.60;86.70;;;;;;5056945;28;20469;-77
2022/08/19 09:35:28;;;;;;;52.25;37.63;;;18.60;86.90;;;;;;5074071;28;20056;-75
2022/08/19 09:37:55;;;;;;;51.50;37.00;;;18.60;87.00;;;;;;5072856;28;20380;-76
2022/08/19 09:40:20;;;;;;;52.28;37.20;;;18.60;87.60;;;;;;5072876;28;20123;-77
2022/08/19 09:42:47;;;;;;;45.90;34.72;;;18.60;87.60;;;;;;5073741;28;20060;-76
2022/08/19 09:45:14;;;;;;;47.05;35.47;;;18.60;87.40;;;;;;5071825;28;20075;-77
2022/08/19 09:47:41;;;;;;;46.58;36.20;;;18.70;87.40;;;;;;5072498;28;20056;-76
2022/08/19 09:50:09;;;;;;;55.13;36.47;;;18.70;87.20;;;;;;5072590;28;20021;-77
2022/08/19 09:52:36;;;;;;;48.67;36.35;;;18.70;87.30;;;;;;5072234;28;20024;-76
2022/08/19 09:55:08;;;;;;;45.03;35.10;;;18.70;87.50;;;;;;5055985;28;20044;-77
2022/08/19 09:57:35;;;;;;;43.90;34.90;;;18.70;87.60;;;;;;5054900;28;20052;-78
2022/08/19 10:00:03;;;;;;;46.67;36.28;;;18.70;87.40;;;;;;5072387;28;20045;-77
2022/08/19 10:02:29;;;;;;;46.80;34.88;;;18.70;87.60;;;;;;5055758;28;20032;-76
2022/08/19 10:07:40;;;;;;;50.38;37.03;;;18.70;88.20;;;;;;5072372;28;20166;-78
2022/08/19 10:10:10;;;;;;;49.55;36.70;;;18.80;88.50;;;;;;5077012;28;20048;-75
2022/08/19 10:12:36;;;;;;;51.55;38.72;;;18.70;89.00;;;;;;5055592;28;20042;-76
2022/08/19 10:15:03;;;;;;;49.22;38.72;;;18.70;89.20;;;;;;5071602;28;20028;-76
2022/08/19 10:17:29;;;;;;;50.65;39.25;;;18.70;90.00;;;;;;5071515;28;20023;-76
2022/08/19 10:19:55;;;;;;;52.72;39.15;;;18.50;90.80;;;;;;5071810;28;20384;-76
2022/08/19 10:22:21;;;;;;;50.05;39.40;;;18.50;91.00;;;;;;5071399;28;20115;-76
2022/08/19 10:24:49;;;;;;;51.42;39.92;;;18.40;92.60;;;;;;5071321;28;20040;-76
2022/08/19 10:27:14;;;;;;;53.35;41.63;;;18.40;91.90;;;;;;5055225;28;20033;-76
2022/08/19 10:29:41;;;;;;;50.70;38.33;;;18.30;91.90;;;;;;5071532;28;20028;-77
2022/08/19 10:32:08;;;;;;;48.97;39.55;;;18.30;92.50;;;;;;5071342;28;20119;-76
2022/08/19 10:34:37;;;;;;;50.78;39.45;;;18.40;91.80;;;;;;5071210;28;20222;-76
2022/08/19 10:37:05;;;;;;;45.38;35.63;;;18.30;91.40;;;;;;5071246;28;20048;-76
2022/08/19 10:39:36;;;;;;;48.65;38.30;;;18.30;91.70;;;;;;5071398;28;20021;-76
2022/08/19 10:42:12;;;;;;;48.60;38.95;;;18.20;92.30;;;;;;5071600;28;20029;-77
2022/08/19 10:44:40;;;;;;;49.25;39.08;;;18.20;92.40;;;;;;5055529;28;20044;-77
2022/08/19 10:47:07;;;;;;;51.45;40.58;;;18.10;92.60;;;;;;5071366;28;20532;-78
2022/08/19 10:52:32;;;;;;;49.17;40.10;;;18.00;93.20;;;;;;5071408;28;20112;-76
2022/08/19 10:52:32;;;;;;;60.95;43.53;;;18.00;93.50;;;;;;5072461;28;20392;-75
2022/08/19 10:57:43;;;;;;;55.42;40.75;;;18.00;93.90;;;;;;5071630;28;20043;-78
2022/08/19 11:00:13;;;;;;;50.30;39.13;;;18.00;93.70;;;;;;5071280;28;20028;-77
2022/08/19 11:02:41;;;;;;;56.60;39.50;;;18.00;93.70;;;;;;5071319;28;20025;-76
2022/08/19 11:05:10;;;;;;;47.35;38.08;;;18.00;93.70;;;;;;5071408;28;20052;-77
2022/08/19 11:07:40;;;;;;;41.90;34.33;;;18.10;93.60;;;;;;5054704;28;20036;-77
2022/08/19 11:10:08;;;;;;;41.00;35.83;;;18.10;93.40;;;;;;5071109;28;20051;-78
2022/08/19 11:12:35;;;;;;;42.08;34.45;;;18.20;93.30;;;;;;5070755;28;20090;-76
2022/08/19 11:15:02;;;;;;;45.25;33.78;;;18.20;92.80;;;;;;5070916;28;20536;-76
2022/08/19 11:17:31;;;;;;;37.85;31.83;;;18.30;92.70;;;;;;5104922;27;20031;-76
2022/08/19 11:19:56;;;;;;;31.70;26.92;;;18.30;92.40;;;;;;5071172;28;20476;-76
2022/08/19 11:22:22;;;;;;;33.80;27.95;;;18.40;92.40;;;;;;5070900;28;20033;-76
2022/08/19 11:24:47;;;;;;;36.47;29.45;;;18.50;92.60;;;;;;5070743;28;20025;-76
2022/08/19 11:27:14;;;;;;;40.72;32.63;;;18.60;92.60;;;;;;5072361;28;20033;-76
2022/08/19 11:29:39;;;;;;;40.72;32.75;;;18.70;92.60;;;;;;5074642;28;20020;-76
2022/08/19 11:32:08;;;;;;;33.95;27.80;;;18.60;92.30;;;;;;5074828;28;20427;-77
2022/08/19 11:34:36;;;;;;;33.53;27.58;;;18.70;92.30;;;;;;5058726;28;20039;-77
2022/08/19 11:37:05;;;;;;;37.88;27.50;;;18.70;92.30;;;;;;5074971;28;20021;-75
2022/08/19 11:39:33;;;;;;;29.70;26.17;;;18.80;92.30;;;;;;5075185;28;20059;-76
2022/08/19 11:42:00;;;;;;;35.33;30.30;;;18.80;92.10;;;;;;5074638;28;20107;-75
2022/08/19 11:44:27;;;;;;;39.80;31.90;;;18.80;91.70;;;;;;5074594;28;20335;-77
2022/08/19 11:46:53;;;;;;;31.50;27.33;;;18.90;91.20;;;;;;5075035;28;20408;-77
2022/08/19 11:49:20;;;;;;;42.35;33.03;;;18.90;91.20;;;;;;5058010;28;20035;-76
2022/08/19 11:51:48;;;;;;;31.30;26.77;;;18.80;91.00;;;;;;5074473;28;20080;-76
2022/08/19 11:54:14;;;;;;;35.28;29.50;;;18.80;90.70;;;;;;5074298;28;20032;-75
2022/08/19 11:56:42;;;;;;;37.20;31.45;;;18.90;90.80;;;;;;5074823;28;20384;-75
2022/08/19 11:59:09;;;;;;;37.88;31.80;;;18.90;90.70;;;;;;5074498;28;20082;-77
2022/08/19 12:01:36;;;;;;;29.42;26.23;;;18.90;90.70;;;;;;5074483;28;20024;-77
2022/08/19 12:04:04;;;;;;;32.15;27.27;;;18.90;90.80;;;;;;5074134;28;20021;-76
2022/08/19 12:06:33;;;;;;;31.25;26.92;;;18.90;90.90;;;;;;5074303;28;20029;-77
2022/08/19 12:09:03;;;;;;;34.88;29.90;;;18.90;90.80;;;;;;5073924;28;20031;-76
2022/08/19 12:11:29;;;;;;;32.22;27.65;;;18.90;90.40;;;;;;5074205;28;20032;-77
2022/08/19 12:13:55;;;;;;;30.98;27.02;;;18.90;89.80;;;;;;5057188;28;20041;-77
2022/08/19 12:16:27;;;;;;;34.03;28.90;;;18.90;89.90;;;;;;5073992;28;20025;-76
2022/08/19 12:18:54;;;;;;;27.50;23.52;;;18.90;89.90;;;;;;5057304;28;20439;-76
2022/08/19 12:21:28;;;;;;;31.00;25.40;;;18.90;90.10;;;;;;5074888;28;20024;-77
2022/08/19 12:23:55;;;;;;;28.20;24.85;;;18.90;90.20;;;;;;5057360;28;20113;-76
2022/08/19 12:26:21;;;;;;;27.40;24.23;;;18.90;90.50;;;;;;5056901;28;20041;-76
2022/08/19 12:28:48;;;;;;;33.58;28.25;;;19.00;90.50;;;;;;5073644;28;20024;-76
2022/08/19 12:31:14;;;;;;;30.38;24.58;;;19.00;90.50;;;;;;5073589;28;20475;-77
2022/08/19 12:33:41;;;;;;;32.97;27.98;;;18.90;90.70;;;;;;5073458;28;20029;-77
2022/08/19 12:36:09;;;;;;;35.45;29.15;;;18.90;91.00;;;;;;5073783;28;20055;-78
2022/08/19 12:38:35;;;;;;;35.50;29.30;;;18.90;91.00;;;;;;5073083;28;20025;-76
2022/08/19 12:41:05;;;;;;;35.40;30.70;;;18.80;90.90;;;;;;5074691;28;20029;-77
2022/08/19 12:43:31;;;;;;;34.08;29.02;;;18.80;90.90;;;;;;5073104;28;20440;-77
2022/08/19 12:45:57;;;;;;;38.60;31.23;;;18.80;90.80;;;;;;5073357;28;20109;-77
2022/08/19 12:48:22;;;;;;;39.67;32.63;;;18.70;91.00;;;;;;5072984;28;20484;-76
2022/08/19 12:50:48;;;;;;;36.75;31.45;;;18.70;90.90;;;;;;5073393;28;20496;-78